Time;durP1;ratioP1;P1;durP2;ratioP2;P2;SDS_P1;SDS_P2;PMS_P1;PMS_P2;Temp;Humidity;BMP_temperature;BMP_pressure;BME280_temperature;BME280_humidity;BME280_pressure;Samples;Min_cycle;Max_cycle;Signal;HPM_P1;HPM_P2
2022/05/19 01:44:37;;;;;;;;;;;;;;;;;;;;;
2022/05/19 14:20:14;;;;;;;;;;;;;;;;;;;;;
2022/05/19 14:31:56;;;;;;;5.33;3.00;;;23.70;96.60;;;;;;4738383;30;20876;-83
2022/05/19 15:26:46;;;;;;;3.90;2.50;;;23.20;99.30;;;;;;4884677;29;20507;-84
2022/05/19 15:29:27;;;;;;;7.23;2.60;;;23.00;99.10;;;;;;4895543;29;20512;-85
2022/05/19 15:31:59;;;;;;;4.70;2.40;;;23.30;98.70;;;;;;4887889;29;20464;-85
2022/05/19 15:34:35;;;;;;;3.77;2.60;;;23.30;98.10;;;;;;4888419;29;20453;-81
2022/05/19 15:38:02;;;;;;;;;;;;;;;;;;;;;
2022/05/19 15:40:50;;;;;;;5.30;3.03;;;23.20;99.50;;;;;;4886291;29;20539;-84
2022/05/19 15:43:17;;;;;;;3.97;2.77;;;23.50;98.50;;;;;;4889246;29;20465;-84
2022/05/19 15:50:22;;;;;;;4.00;2.63;;;23.00;99.90;;;;;;4789679;29;20492;-82
2022/05/19 15:53:26;;;;;;;4.80;2.50;;;23.00;99.90;;;;;;4804135;29;20452;-85
2022/05/19 15:56:07;;;;;;;7.10;3.50;;;23.00;99.90;;;;;;4784761;29;20484;-83
2022/05/19 15:58:58;;;;;;;4.57;2.67;;;23.10;99.90;;;;;;4807225;29;20515;-84
2022/05/19 16:01:38;;;;;;;;;;;;;;;;;;;;;
2022/05/19 16:04:30;;;;;;;5.00;2.70;;;23.10;99.90;;;;;;4805149;29;20474;-85
2022/05/19 16:07:19;;;;;;;5.30;2.70;;;22.90;99.90;;;;;;4794675;29;20483;-84
2022/05/19 16:10:01;;;;;;;3.20;2.47;;;22.90;99.90;;;;;;4803886;29;20501;-82
2022/05/19 16:12:35;;;;;;;3.43;2.57;;;22.80;99.90;;;;;;4805237;29;20460;-83
2022/05/19 16:15:17;;;;;;;2.83;2.50;;;22.80;99.90;;;;;;4790915;29;20468;-83
2022/05/19 16:17:53;;;;;;;5.13;2.17;;;22.80;99.90;;;;;;4805148;29;20524;-84
2022/05/19 16:20:48;;;;;;;5.30;3.47;;;22.90;99.90;;;;;;4788955;29;20814;-81
2022/05/19 16:23:43;;;;;;;4.03;2.70;;;22.90;99.90;;;;;;4791387;29;21600;-83
2022/05/19 16:26:25;;;;;;;5.47;4.00;;;23.00;99.90;;;;;;4817957;29;21066;-84
2022/05/19 16:28:53;;;;;;;5.60;3.20;;;22.90;99.90;;;;;;4877370;29;20514;-82
2022/05/19 16:31:27;;;;;;;6.97;2.90;;;22.90;99.90;;;;;;4862580;29;20514;-86
2022/05/19 16:34:13;;;;;;;3.43;3.00;;;22.90;99.90;;;;;;4866622;29;20450;-85
2022/05/19 16:37:42;;;;;;;6.03;3.03;;;23.00;99.90;;;;;;4859335;29;20458;-85
2022/05/19 16:40:18;;;;;;;5.90;2.73;;;23.00;99.60;;;;;;4863747;29;20457;-84
2022/05/19 16:42:47;;;;;;;6.33;3.57;;;22.90;99.60;;;;;;4848622;29;20605;-83
2022/05/19 16:45:34;;;;;;;6.93;3.50;;;23.00;99.20;;;;;;4894905;23;20625;-82
2022/05/19 16:48:21;;;;;;;8.30;3.43;;;23.00;99.70;;;;;;4850334;29;20485;-84
2022/05/19 16:51:34;;;;;;;5.20;2.70;;;23.00;98.80;;;;;;4790443;29;20570;-84
2022/05/19 17:00:48;;;;;;;7.23;2.90;;;23.40;98.20;;;;;;4791494;29;20457;-83
2022/05/19 17:03:30;;;;;;;3.73;3.07;;;23.40;98.00;;;;;;4774806;29;20469;-86
2022/05/19 17:06:18;;;;;;;5.87;3.20;;;23.40;98.30;;;;;;4782693;29;20476;-82
2022/05/19 17:09:05;;;;;;;7.50;3.37;;;23.40;98.50;;;;;;4782150;29;20699;-84
2022/05/19 17:12:06;;;;;;;4.87;3.40;;;23.50;97.80;;;;;;4790464;29;20452;-85
2022/05/19 17:15:09;;;;;;;3.93;3.23;;;23.50;98.00;;;;;;4788439;29;20450;-82
2022/05/19 17:17:50;;;;;;;4.07;3.00;;;23.50;98.00;;;;;;4772471;29;20469;-84
2022/05/19 17:20:57;;;;;;;3.87;3.03;;;23.80;97.40;;;;;;4785680;29;20708;-84
2022/05/19 17:23:46;;;;;;;7.33;2.80;;;24.10;96.60;;;;;;4773599;29;20516;-84
2022/05/19 17:26:27;;;;;;;10.30;4.50;;;23.80;96.60;;;;;;4771364;29;20476;-83
2022/05/19 17:29:18;;;;;;;4.00;2.53;;;23.50;97.40;;;;;;4835899;29;20553;-84
2022/05/19 17:32:04;;;;;;;4.60;2.43;;;23.40;97.60;;;;;;4840615;29;20529;-83
2022/05/19 17:34:59;;;;;;;5.33;4.13;;;23.30;98.10;;;;;;4855718;29;20457;-85
2022/05/19 17:40:52;;;;;;;3.53;2.43;;;23.40;98.10;;;;;;4840900;29;20876;-83
2022/05/19 17:44:03;;;;;;;4.70;2.77;;;23.50;97.30;;;;;;4757271;30;20474;-83
2022/05/19 17:46:41;;;;;;;4.37;3.27;;;23.50;98.50;;;;;;4753613;30;20508;-81
2022/05/19 17:49:13;;;;;;;6.80;3.50;;;23.10;98.80;;;;;;4768249;30;20534;-86
2022/05/19 17:51:45;;;;;;;4.03;3.00;;;23.00;99.40;;;;;;4749496;30;20489;-83
2022/05/19 17:54:28;;;;;;;6.70;3.27;;;23.00;99.40;;;;;;4761412;30;20514;-84
2022/05/19 17:57:42;;;;;;;3.43;2.83;;;22.80;99.60;;;;;;4759679;30;20537;-85
2022/05/19 18:00:15;;;;;;;7.20;3.50;;;22.70;99.60;;;;;;4764382;30;20474;-83
2022/05/19 18:02:48;;;;;;;7.20;3.50;;;22.80;99.20;;;;;;4748539;30;20469;-82
2022/05/19 18:05:21;;;;;;;4.30;3.23;;;22.90;98.90;;;;;;4754453;30;20533;-81
2022/05/19 18:08:03;;;;;;;3.90;2.43;;;22.80;98.80;;;;;;4768850;29;20470;-83
2022/05/19 18:10:38;;;;;;;5.20;3.10;;;22.80;99.10;;;;;;4769454;30;20496;-85
2022/05/19 18:13:25;;;;;;;7.17;3.30;;;22.90;98.20;;;;;;4761199;30;20584;-84
2022/05/19 18:19:07;;;;;;;4.37;3.47;;;22.90;98.50;;;;;;4766575;30;20536;-82
2022/05/19 18:21:39;;;;;;;5.87;2.90;;;23.20;98.50;;;;;;4829047;29;20458;-84
2022/05/19 18:24:39;;;;;;;5.23;2.60;;;23.10;98.10;;;;;;4856611;29;20462;-83
2022/05/19 18:27:33;;;;;;;4.20;2.83;;;23.10;97.90;;;;;;4843117;29;20554;-85
2022/05/19 18:30:13;;;;;;;6.70;3.00;;;23.20;97.90;;;;;;4843196;29;20494;-85
2022/05/19 18:33:06;;;;;;;7.33;4.17;;;23.00;97.80;;;;;;4837454;29;20442;-85
2022/05/19 18:36:10;;;;;;;3.60;3.23;;;22.90;97.70;;;;;;4840405;29;20500;-83
2022/05/19 18:46:07;;;;;;;4.40;2.80;;;22.60;99.70;;;;;;4830880;29;20598;-82
2022/05/19 18:49:10;;;;;;;6.83;2.97;;;22.90;99.10;;;;;;4839831;29;20526;-82
2022/05/19 18:51:57;;;;;;;5.50;2.90;;;22.90;99.00;;;;;;4843199;29;20462;-84
2022/05/19 18:55:06;;;;;;;5.37;3.40;;;22.80;99.20;;;;;;4786700;29;20464;-83
2022/05/19 18:57:59;;;;;;;8.20;3.43;;;22.80;99.10;;;;;;4845737;29;20458;-84
2022/05/19 19:01:09;;;;;;;4.00;3.43;;;22.70;99.50;;;;;;4852762;29;20439;-83
2022/05/19 19:04:33;;;;;;;3.50;3.20;;;22.60;99.70;;;;;;4849621;29;20461;-85
2022/05/19 19:07:11;;;;;;;3.73;3.20;;;22.50;99.90;;;;;;4839363;29;20819;-83
2022/05/19 19:10:13;;;;;;;4.23;3.73;;;22.30;99.90;;;;;;4817113;29;20478;-86
2022/05/19 19:12:52;;;;;;;4.70;3.67;;;22.40;99.90;;;;;;4826347;29;20810;-83
2022/05/19 19:15:28;;;;;;;5.87;3.80;;;22.30;99.90;;;;;;4848066;29;20490;-86
2022/05/19 19:21:17;;;;;;;6.93;3.63;;;22.40;99.90;;;;;;4852739;29;20481;-86
2022/05/19 19:24:05;;;;;;;5.00;3.50;;;22.30;99.90;;;;;;4850835;29;20606;-84
2022/05/19 19:27:17;;;;;;;4.57;3.87;;;22.30;99.90;;;;;;4851962;29;20474;-84
2022/05/19 19:30:07;;;;;;;7.23;4.40;;;22.40;99.90;;;;;;4844319;29;20553;-81
2022/05/19 19:33:04;;;;;;;5.23;4.30;;;22.30;99.90;;;;;;4851951;29;20461;-82
2022/05/19 19:35:54;;;;;;;5.27;4.00;;;22.10;99.90;;;;;;4856539;29;21138;-83
2022/05/19 19:38:38;;;;;;;6.70;4.73;;;22.00;99.90;;;;;;4847906;29;20462;-87
2022/05/19 19:44:28;;;;;;;5.70;4.07;;;22.00;99.90;;;;;;4849030;29;20430;-82
2022/05/19 19:47:17;;;;;;;5.63;4.90;;;21.90;99.90;;;;;;4845121;29;20488;-84
2022/05/19 19:53:03;;;;;;;5.13;4.43;;;21.90;99.90;;;;;;4841711;29;20614;-86
2022/05/19 19:55:36;;;;;;;8.77;7.70;;;21.90;99.90;;;;;;4841653;29;20473;-83
2022/05/19 19:58:30;;;;;;;;;;;;;;;;;;;;;
2022/05/19 20:01:09;;;;;;;9.00;5.20;;;21.80;99.90;;;;;;4845614;29;21007;-84
2022/05/19 20:04:04;;;;;;;6.97;4.60;;;21.90;99.90;;;;;;4834615;29;20490;-84
2022/05/19 20:06:52;;;;;;;5.50;5.00;;;21.80;99.90;;;;;;4845991;29;20698;-86
2022/05/19 20:09:26;;;;;;;6.17;4.10;;;22.00;99.90;;;;;;4842163;29;20512;-83
2022/05/19 20:11:55;;;;;;;5.27;4.73;;;22.20;99.90;;;;;;4846614;29;20458;-82
2022/05/19 20:14:26;;;;;;;4.80;4.30;;;22.10;99.90;;;;;;4851767;29;20465;-86
2022/05/19 20:17:13;;;;;;;6.40;4.63;;;22.00;99.90;;;;;;4855790;29;20505;-84
2022/05/19 20:19:43;;;;;;;4.43;3.33;;;21.70;99.90;;;;;;4867232;29;20498;-82
2022/05/19 20:22:14;;;;;;;5.73;5.03;;;21.50;99.90;;;;;;4851157;29;20454;-82
2022/05/19 20:24:51;;;;;;;3.80;3.37;;;21.40;99.90;;;;;;4849859;29;20516;-83
2022/05/19 20:27:18;;;;;;;5.00;3.90;;;21.40;99.90;;;;;;4854157;29;20486;-80
2022/05/19 20:29:52;;;;;;;4.53;3.80;;;21.50;99.90;;;;;;4851950;29;21034;-85
2022/05/19 20:32:27;;;;;;;4.60;4.20;;;21.60;99.90;;;;;;4856022;29;20822;-84
2022/05/19 20:35:16;;;;;;;3.90;3.60;;;21.40;99.90;;;;;;4845125;29;20477;-84
2022/05/19 20:37:58;;;;;;;6.17;4.30;;;21.30;99.90;;;;;;4845969;29;20494;-85
2022/05/19 20:40:40;;;;;;;7.23;4.53;;;21.40;99.90;;;;;;4848461;29;20455;-83
2022/05/19 20:43:11;;;;;;;5.93;4.07;;;21.20;99.90;;;;;;4862318;29;20495;-83
2022/05/19 20:45:43;;;;;;;4.30;3.50;;;21.20;99.90;;;;;;4846356;29;20497;-83
2022/05/19 20:48:13;;;;;;;7.30;4.03;;;21.30;99.90;;;;;;4851176;29;20458;-87
2022/05/19 20:51:16;;;;;;;3.90;3.60;;;21.30;99.90;;;;;;4841159;29;20562;-83
2022/05/19 20:53:54;;;;;;;10.93;5.17;;;21.40;99.90;;;;;;4839314;29;20457;-87
2022/05/19 20:56:48;;;;;;;6.70;4.20;;;21.30;99.90;;;;;;4841696;29;22184;-84
2022/05/19 20:59:36;;;;;;;4.87;4.40;;;21.30;99.90;;;;;;4847890;29;20502;-86
2022/05/19 21:02:26;;;;;;;;;;;;;;;;;;;;;
2022/05/19 21:05:54;;;;;;;4.83;4.30;;;21.20;99.90;;;;;;4857987;29;20506;-83
2022/05/19 21:08:26;;;;;;;5.00;4.13;;;21.30;99.90;;;;;;4841835;29;20477;-83
2022/05/19 21:11:24;;;;;;;5.87;4.03;;;21.40;99.90;;;;;;4838688;29;20837;-86
2022/05/19 21:17:46;;;;;;;6.53;4.60;;;21.30;99.90;;;;;;4823596;29;20438;-84
2022/05/19 21:20:56;;;;;;;4.40;4.00;;;21.20;99.90;;;;;;4844574;29;20558;-82
2022/05/19 21:27:11;;;;;;;5.93;4.90;;;21.40;99.90;;;;;;4861310;29;20454;-87
2022/05/19 21:30:01;;;;;;;10.07;5.07;;;21.30;99.90;;;;;;4861802;29;20493;-88
2022/05/19 21:32:59;;;;;;;4.93;4.30;;;21.30;99.90;;;;;;4847358;29;20495;-83
2022/05/19 21:36:09;;;;;;;7.87;4.27;;;21.30;99.90;;;;;;4843428;29;20494;-83
2022/05/19 21:38:54;;;;;;;7.17;4.87;;;21.30;99.90;;;;;;4841797;29;21935;-85
2022/05/19 21:41:39;;;;;;;5.37;4.70;;;21.40;99.90;;;;;;4834831;29;21154;-82
2022/05/19 21:44:21;;;;;;;4.37;3.97;;;21.30;99.90;;;;;;4839392;29;21062;-86
2022/05/19 21:47:17;;;;;;;6.67;6.07;;;21.30;99.90;;;;;;4842726;29;20497;-83
2022/05/19 21:49:52;;;;;;;4.67;4.27;;;21.40;99.90;;;;;;4845873;29;20478;-83
2022/05/19 21:56:08;;;;;;;4.90;4.50;;;21.40;99.90;;;;;;4843313;29;20474;-82
2022/05/19 22:02:10;;;;;;;5.27;4.77;;;21.30;99.90;;;;;;4859209;29;20538;-86
2022/05/19 22:04:52;;;;;;;4.83;4.30;;;21.30;99.90;;;;;;4858348;29;20454;-82
2022/05/19 22:07:40;;;;;;;5.13;4.20;;;21.10;99.90;;;;;;4855501;29;21221;-83
2022/05/19 22:10:25;;;;;;;5.77;5.27;;;21.10;99.90;;;;;;4847706;29;20500;-84
2022/05/19 22:13:03;;;;;;;6.07;4.67;;;21.10;99.90;;;;;;4847587;29;20469;-86
2022/05/19 22:15:45;;;;;;;;;;;;;;;;;;;;;
2022/05/19 22:18:29;;;;;;;7.47;5.27;;;21.20;99.90;;;;;;4847536;29;20458;-82
2022/05/19 22:20:56;;;;;;;5.40;4.90;;;21.20;99.90;;;;;;4843818;29;20509;-82
2022/05/19 22:23:43;;;;;;;5.90;5.30;;;21.20;99.90;;;;;;4845291;29;20512;-83
2022/05/19 22:26:39;;;;;;;6.80;6.17;;;21.20;99.90;;;;;;4840644;29;20493;-85
2022/05/19 22:29:46;;;;;;;7.47;6.87;;;21.20;99.90;;;;;;4843998;29;20857;-86
2022/05/19 22:40:31;;;;;;;;;;;;;;;;;;;;;
2022/05/19 22:49:55;;;;;;;11.30;10.20;;;21.20;99.90;;;;;;4844814;29;20466;-84
2022/05/19 22:52:37;;;;;;;11.27;10.00;;;21.10;99.90;;;;;;4857192;29;20533;-85
2022/05/19 22:55:19;;;;;;;10.57;9.57;;;21.10;99.90;;;;;;4843538;29;20464;-84
2022/05/19 22:58:10;;;;;;;11.83;10.73;;;21.10;99.90;;;;;;4850071;29;20569;-85
2022/05/19 23:01:12;;;;;;;12.60;11.30;;;21.00;99.90;;;;;;4837334;29;20492;-85
2022/05/19 23:04:06;;;;;;;14.10;12.80;;;20.90;99.90;;;;;;4833806;29;22178;-86
2022/05/19 23:06:45;;;;;;;15.17;13.67;;;20.90;99.90;;;;;;4839842;29;20660;-85
2022/05/19 23:09:32;;;;;;;14.70;13.43;;;20.90;99.90;;;;;;4846674;29;21035;-84
2022/05/19 23:12:29;;;;;;;15.60;14.00;;;20.90;99.90;;;;;;4843118;29;20836;-84
2022/05/19 23:15:31;;;;;;;17.23;15.60;;;20.90;99.90;;;;;;4841984;29;20549;-82
2022/05/19 23:18:08;;;;;;;16.17;14.57;;;21.10;99.90;;;;;;4841582;29;20499;-85
2022/05/19 23:20:44;;;;;;;16.17;14.57;;;20.80;99.90;;;;;;4841012;29;20484;-83
2022/05/19 23:23:21;;;;;;;16.17;14.67;;;20.70;99.90;;;;;;4843983;29;20468;-84
2022/05/19 23:25:51;;;;;;;17.07;15.57;;;20.70;99.90;;;;;;4845345;29;20920;-86
2022/05/19 23:28:27;;;;;;;17.77;16.20;;;20.70;99.90;;;;;;4841281;29;21541;-84
2022/05/19 23:31:09;;;;;;;16.97;15.37;;;20.60;99.90;;;;;;4838170;29;20502;-83
2022/05/19 23:33:54;;;;;;;17.23;15.60;;;20.70;99.90;;;;;;4843417;29;21041;-84
2022/05/19 23:39:53;;;;;;;16.90;15.30;;;20.60;99.90;;;;;;4835733;29;20449;-84
2022/05/19 23:42:41;;;;;;;18.03;16.43;;;20.60;99.90;;;;;;4850651;29;20473;-86
2022/05/19 23:45:24;;;;;;;17.67;15.90;;;20.50;99.90;;;;;;4848376;29;20478;-86
2022/05/19 23:48:15;;;;;;;17.77;16.07;;;20.60;99.90;;;;;;4839242;29;20473;-85
2022/05/19 23:51:18;;;;;;;19.70;16.83;;;20.60;99.90;;;;;;4748491;30;20485;-84
2022/05/19 23:54:23;;;;;;;17.40;15.80;;;20.60;99.90;;;;;;4764301;30;20462;-86
2022/05/19 23:57:09;;;;;;;18.07;16.30;;;20.60;99.90;;;;;;4742879;30;20629;-83
2022/05/19 23:59:51;;;;;;;17.40;15.60;;;20.60;99.90;;;;;;4760266;30;20541;-84
